Time;durP1;ratioP1;P1;durP2;ratioP2;P2;SDS_P1;SDS_P2;PMS_P1;PMS_P2;Temp;Humidity;BMP_temperature;BMP_pressure;BME280_temperature;BME280_humidity;BME280_pressure;Samples;Min_cycle;Max_cycle;Signal;HPM_P1;HPM_P2
2022/11/02 00:00:50;;;;;;;1.83;1.20;;;24.70;58.50;;;;;;5009980;28;20038;-62
2022/11/02 00:03:16;;;;;;;2.03;1.20;;;24.70;58.50;;;;;;5011151;28;20022;-62
2022/11/02 00:05:42;;;;;;;2.17;1.10;;;24.70;58.50;;;;;;5019068;28;20037;-62
2022/11/02 00:08:08;;;;;;;1.42;1.00;;;24.60;58.50;;;;;;5011625;28;20076;-63
2022/11/02 00:10:33;;;;;;;1.95;1.20;;;24.60;58.60;;;;;;5015729;28;20034;-64
2022/11/02 00:12:59;;;;;;;1.80;1.10;;;24.60;58.60;;;;;;5017518;28;20033;-64
2022/11/02 00:15:28;;;;;;;1.63;1.00;;;24.60;58.60;;;;;;5020007;28;20542;-62
2022/11/02 00:17:57;;;;;;;1.55;1.02;;;24.60;58.60;;;;;;5014686;28;20040;-61
2022/11/02 00:20:25;;;;;;;;;;;24.50;58.90;;;;;;5017040;28;20041;-62
2022/11/02 00:22:54;;;;;;;1.98;1.00;;;24.50;58.50;;;;;;5017231;28;20257;-60
2022/11/02 00:25:22;;;;;;;1.48;0.93;;;24.50;58.60;;;;;;5028118;28;20385;-61
2022/11/02 00:27:48;;;;;;;1.33;0.90;;;24.50;58.60;;;;;;5012559;28;20092;-62
2022/11/02 00:30:14;;;;;;;2.78;1.25;;;24.50;58.70;;;;;;5007506;28;20026;-62
2022/11/02 00:32:40;;;;;;;2.63;1.10;;;24.50;58.70;;;;;;5013109;28;20032;-62
2022/11/02 00:35:06;;;;;;;1.95;1.00;;;24.40;58.70;;;;;;5020873;28;20026;-60
2022/11/02 00:37:32;;;;;;;2.05;1.20;;;24.40;58.70;;;;;;5014889;28;20388;-61
2022/11/02 00:39:57;;;;;;;1.88;1.10;;;24.40;58.70;;;;;;5012924;28;20037;-62
2022/11/02 00:42:23;;;;;;;1.92;1.13;;;24.40;58.70;;;;;;5010792;28;20030;-61
2022/11/02 00:44:49;;;;;;;1.95;1.00;;;24.40;58.70;;;;;;5006677;28;20104;-63
2022/11/02 00:47:14;;;;;;;2.83;1.15;;;24.40;58.80;;;;;;5012013;28;20034;-62
2022/11/02 00:49:40;;;;;;;3.03;1.35;;;24.30;58.80;;;;;;5014658;28;20029;-61
2022/11/02 00:52:06;;;;;;;2.45;1.15;;;24.30;58.80;;;;;;5014818;28;20379;-62
2022/11/02 00:54:31;;;;;;;1.67;1.10;;;24.30;58.80;;;;;;5015487;28;20022;-60
2022/11/02 00:56:57;;;;;;;2.25;1.20;;;24.30;58.80;;;;;;5016560;28;20109;-62
2022/11/02 00:59:22;;;;;;;1.67;1.00;;;24.30;58.80;;;;;;5019959;28;20029;-62
2022/11/02 01:01:48;;;;;;;2.00;1.10;;;24.30;58.80;;;;;;5020578;28;20044;-61
2022/11/02 01:04:16;;;;;;;1.98;0.93;;;24.20;58.80;;;;;;5016890;28;20457;-62
2022/11/02 01:06:42;;;;;;;1.63;1.00;;;24.20;58.90;;;;;;5012173;28;20053;-61
2022/11/02 01:09:09;;;;;;;2.10;1.10;;;24.20;58.90;;;;;;5013829;28;20123;-60
2022/11/02 01:11:34;;;;;;;1.95;1.10;;;24.20;58.90;;;;;;5014228;28;20057;-63
2022/11/02 01:14:00;;;;;;;2.10;1.00;;;24.20;59.00;;;;;;5015700;28;20050;-61
2022/11/02 01:16:26;;;;;;;1.25;0.88;;;24.10;58.90;;;;;;5013595;28;20615;-61
2022/11/02 01:18:53;;;;;;;1.23;0.98;;;24.10;59.00;;;;;;5011895;28;20947;-61
2022/11/02 01:21:19;;;;;;;1.55;1.00;;;24.10;59.00;;;;;;5007358;28;20103;-63
2022/11/02 01:23:45;;;;;;;1.38;1.10;;;24.10;59.00;;;;;;5008363;28;20018;-63
2022/11/02 01:26:11;;;;;;;1.58;0.90;;;24.10;59.00;;;;;;5019002;28;20045;-62
2022/11/02 01:28:38;;;;;;;1.20;0.90;;;24.10;59.10;;;;;;5016070;28;20022;-61
2022/11/02 01:31:04;;;;;;;1.27;0.93;;;24.00;59.10;;;;;;5014968;28;20397;-62
2022/11/02 01:33:30;;;;;;;1.48;0.82;;;24.00;59.10;;;;;;5017234;28;20478;-62
2022/11/02 01:35:56;;;;;;;1.80;1.02;;;24.00;59.10;;;;;;5014413;28;20091;-63
2022/11/02 01:38:23;;;;;;;1.02;0.80;;;24.00;59.10;;;;;;5017056;28;20025;-62
2022/11/02 01:40:49;;;;;;;1.90;0.75;;;24.00;59.10;;;;;;5017012;28;20030;-63
2022/11/02 01:43:28;;;;;;;1.00;0.90;;;24.00;59.10;;;;;;5014539;28;20142;-61
2022/11/02 01:46:05;;;;;;;1.73;0.90;;;24.00;59.10;;;;;;5018007;28;20489;-61
2022/11/02 01:48:48;;;;;;;1.92;1.10;;;24.00;59.20;;;;;;5023965;28;20022;-62
2022/11/02 01:51:38;;;;;;;1.15;0.90;;;24.00;59.20;;;;;;5012900;28;20562;-61
2022/11/02 01:54:11;;;;;;;1.48;0.90;;;23.90;59.20;;;;;;5017073;28;20118;-62
2022/11/02 01:56:38;;;;;;;1.50;0.90;;;23.90;59.20;;;;;;5015541;28;20018;-61
2022/11/02 01:59:09;;;;;;;1.13;0.85;;;23.90;59.20;;;;;;5019175;28;20166;-62
2022/11/02 02:01:34;;;;;;;1.38;1.00;;;23.90;59.20;;;;;;5020528;28;20045;-61
2022/11/02 02:04:01;;;;;;;1.52;1.05;;;23.90;59.30;;;;;;5012734;28;20018;-61
2022/11/02 02:06:26;;;;;;;1.25;0.80;;;23.80;59.30;;;;;;5023973;28;20021;-62
2022/11/02 02:08:55;;;;;;;1.27;0.80;;;23.90;59.30;;;;;;5024910;28;20049;-61
2022/11/02 02:11:26;;;;;;;1.83;1.02;;;23.90;59.40;;;;;;5021081;28;20033;-60
2022/11/02 02:14:01;;;;;;;1.27;0.88;;;23.80;59.30;;;;;;5015345;28;20481;-61
2022/11/02 02:16:45;;;;;;;1.67;0.88;;;23.80;59.30;;;;;;5017363;28;20500;-61
2022/11/02 02:19:27;;;;;;;1.05;0.90;;;23.80;59.40;;;;;;5020095;28;20056;-62
2022/11/02 02:22:29;;;;;;;1.13;0.90;;;23.70;59.40;;;;;;5020188;28;20056;-61
2022/11/02 02:25:22;;;;;;;1.00;0.80;;;23.80;59.40;;;;;;5011208;28;20485;-62
2022/11/02 02:28:26;;;;;;;1.70;0.93;;;23.80;59.50;;;;;;5005604;28;20503;-63
2022/11/02 02:31:20;;;;;;;1.40;0.80;;;23.70;59.50;;;;;;5007553;28;20065;-61
2022/11/02 02:33:48;;;;;;;1.30;0.90;;;23.70;59.50;;;;;;5015597;28;20432;-62
2022/11/02 02:37:01;;;;;;;1.38;0.90;;;23.70;59.50;;;;;;5026439;28;20034;-61
2022/11/02 02:39:46;;;;;;;1.23;0.80;;;23.70;59.50;;;;;;4960298;28;20045;-61
2022/11/02 02:42:22;;;;;;;1.67;0.90;;;23.70;59.50;;;;;;4958433;28;20031;-61
2022/11/02 02:45:00;;;;;;;1.05;0.80;;;23.70;59.50;;;;;;5009288;28;20397;-61
2022/11/02 02:47:29;;;;;;;0.93;0.80;;;23.70;59.50;;;;;;5020505;28;20100;-61
2022/11/02 02:50:04;;;;;;;1.90;1.00;;;23.60;59.50;;;;;;5014941;28;20034;-63
2022/11/02 02:52:33;;;;;;;1.27;1.13;;;23.60;59.50;;;;;;5013874;28;20559;-63
2022/11/02 02:55:01;;;;;;;1.75;0.90;;;23.60;59.60;;;;;;5020888;28;20034;-61
2022/11/02 02:57:29;;;;;;;1.30;0.90;;;23.60;59.60;;;;;;5020247;28;20029;-63
2022/11/02 02:59:55;;;;;;;1.60;0.90;;;23.50;59.60;;;;;;5019119;28;20052;-64
2022/11/02 03:02:29;;;;;;;1.05;0.80;;;23.50;59.60;;;;;;5008994;28;20030;-61
2022/11/02 03:04:54;;;;;;;1.10;0.77;;;23.50;60.20;;;;;;5005018;28;20184;-62
2022/11/02 03:07:24;;;;;;;1.25;1.15;;;23.50;59.70;;;;;;5009908;28;20525;-63
2022/11/02 03:10:06;;;;;;;1.55;0.90;;;23.50;59.60;;;;;;5017583;28;20037;-63
2022/11/02 03:12:55;;;;;;;1.08;0.80;;;23.50;59.70;;;;;;5016480;28;20089;-62
2022/11/02 03:15:39;;;;;;;1.65;1.00;;;23.50;59.70;;;;;;5013046;28;20030;-61
2022/11/02 03:18:37;;;;;;;1.92;0.90;;;23.50;59.70;;;;;;5011654;28;20401;-64
2022/11/02 03:21:31;;;;;;;1.27;0.90;;;23.50;59.70;;;;;;5016084;28;20480;-60
2022/11/02 03:24:08;;;;;;;1.00;0.80;;;23.50;59.70;;;;;;5021920;28;20026;-61
2022/11/02 03:26:36;;;;;;;1.60;1.00;;;23.50;59.70;;;;;;5019293;28;20048;-61
2022/11/02 03:29:11;;;;;;;1.25;0.90;;;23.50;59.70;;;;;;5021797;28;20033;-61
2022/11/02 03:32:09;;;;;;;1.40;0.88;;;23.50;59.70;;;;;;5017147;28;20029;-63
2022/11/02 03:34:41;;;;;;;1.00;0.90;;;23.50;59.70;;;;;;5016713;28;20496;-62
2022/11/02 03:37:26;;;;;;;0.90;0.80;;;23.40;59.70;;;;;;5012915;28;20030;-62
2022/11/02 03:40:13;;;;;;;1.75;0.80;;;23.40;59.70;;;;;;5009481;28;20034;-61
2022/11/02 03:42:41;;;;;;;1.75;0.90;;;23.40;59.70;;;;;;5012935;28;20035;-61
2022/11/02 03:45:21;;;;;;;1.10;0.90;;;23.40;59.70;;;;;;5016486;28;20084;-61
2022/11/02 03:47:54;;;;;;;1.10;0.90;;;23.40;59.70;;;;;;5018440;28;20053;-61
2022/11/02 03:50:22;;;;;;;1.10;0.90;;;23.40;59.70;;;;;;5016258;28;20464;-61
2022/11/02 03:52:54;;;;;;;1.95;0.90;;;23.40;59.70;;;;;;5016358;28;20091;-62
2022/11/02 03:55:31;;;;;;;0.98;0.75;;;23.40;59.70;;;;;;5010992;28;20025;-61
2022/11/02 03:57:58;;;;;;;1.50;1.00;;;23.40;59.70;;;;;;5014653;28;20125;-62
2022/11/02 04:00:25;;;;;;;0.75;0.75;;;23.40;59.70;;;;;;5016934;28;20022;-60
2022/11/02 04:03:01;;;;;;;1.00;0.70;;;23.40;59.70;;;;;;5017103;28;20075;-62
2022/11/02 04:05:29;;;;;;;0.82;0.80;;;23.40;59.80;;;;;;5016924;28;20045;-62
2022/11/02 04:14:36;;;;;;;1.08;0.80;;;23.30;59.70;;;;;;5011013;28;20033;-61
2022/11/02 04:16:08;;;;;;;1.48;0.90;;;23.30;59.70;;;;;;5016106;28;20036;-61
2022/11/02 04:21:18;;;;;;;1.42;0.90;;;23.30;59.70;;;;;;5023283;28;20048;-61
2022/11/02 04:26:28;;;;;;;0.90;0.80;;;23.30;59.70;;;;;;5017218;28;20036;-61
2022/11/02 04:28:54;;;;;;;1.20;0.80;;;23.30;59.70;;;;;;5019206;28;20021;-61
2022/11/02 04:31:19;;;;;;;1.00;0.90;;;23.30;59.70;;;;;;5016895;28;20492;-61
2022/11/02 04:33:45;;;;;;;0.98;0.80;;;23.30;59.70;;;;;;5016700;28;20030;-61
2022/11/02 04:36:10;;;;;;;0.80;0.70;;;23.30;59.70;;;;;;5008207;28;20038;-61
2022/11/02 04:38:39;;;;;;;0.88;0.70;;;23.30;59.80;;;;;;5019888;28;20116;-63
2022/11/02 04:43:50;;;;;;;1.13;0.70;;;23.30;59.70;;;;;;5012605;28;20029;-63
2022/11/02 04:46:15;;;;;;;1.00;0.90;;;23.30;59.80;;;;;;5009329;28;20030;-62
2022/11/02 04:48:41;;;;;;;0.85;0.80;;;23.20;59.70;;;;;;4999161;28;20037;-62
2022/11/02 04:51:06;;;;;;;1.30;0.80;;;23.20;59.80;;;;;;5008073;28;20061;-62
2022/11/02 04:53:32;;;;;;;1.13;0.90;;;23.20;59.70;;;;;;5012355;28;20380;-62
2022/11/02 04:55:57;;;;;;;0.90;0.80;;;23.20;59.80;;;;;;5010355;28;20037;-62
2022/11/02 04:58:23;;;;;;;0.70;0.70;;;23.20;60.30;;;;;;5007332;28;20026;-62
2022/11/02 05:00:49;;;;;;;1.20;0.85;;;23.20;59.80;;;;;;5004384;28;20560;-62
2022/11/02 05:03:14;;;;;;;0.85;0.70;;;23.20;59.80;;;;;;5010893;28;20021;-62
2022/11/02 05:05:40;;;;;;;1.00;0.73;;;23.20;59.80;;;;;;5021476;28;20026;-62
2022/11/02 05:08:05;;;;;;;1.13;0.80;;;23.20;59.80;;;;;;5024623;28;20044;-61
2022/11/02 05:10:31;;;;;;;0.98;0.77;;;23.20;59.80;;;;;;5016718;28;20022;-61
2022/11/02 05:12:58;;;;;;;1.02;0.85;;;23.20;59.80;;;;;;5013962;28;20108;-63
2022/11/02 05:15:24;;;;;;;0.70;0.70;;;23.20;59.80;;;;;;5013580;28;20022;-61
2022/11/02 05:17:49;;;;;;;0.68;0.68;;;23.20;59.80;;;;;;5024257;28;20026;-61
2022/11/02 05:20:15;;;;;;;0.70;0.60;;;23.20;59.80;;;;;;5017468;28;20065;-61
2022/11/02 05:22:41;;;;;;;0.77;0.70;;;23.20;59.80;;;;;;5011264;28;20042;-62
2022/11/02 05:25:08;;;;;;;0.73;0.73;;;23.20;59.90;;;;;;5007410;28;20026;-61
2022/11/02 05:27:33;;;;;;;0.95;0.90;;;23.10;59.80;;;;;;5010695;28;20525;-61
2022/11/02 05:29:59;;;;;;;0.95;0.70;;;23.10;59.80;;;;;;5013444;28;20034;-61
2022/11/02 05:32:26;;;;;;;1.00;0.80;;;23.10;59.90;;;;;;5011912;28;20450;-61
2022/11/02 05:34:52;;;;;;;0.90;0.70;;;23.20;59.90;;;;;;5008930;28;20030;-62
2022/11/02 05:37:17;;;;;;;1.02;0.80;;;23.10;59.80;;;;;;5008815;28;20042;-61
2022/11/02 05:39:43;;;;;;;1.05;0.80;;;23.10;59.80;;;;;;5006225;28;20105;-61
2022/11/02 05:42:09;;;;;;;1.17;0.90;;;23.10;59.80;;;;;;5015004;28;20033;-61
2022/11/02 05:44:35;;;;;;;0.90;0.80;;;23.10;59.80;;;;;;5014559;28;20031;-62
2022/11/02 05:47:01;;;;;;;0.80;0.70;;;23.10;59.80;;;;;;5010561;28;20029;-60
2022/11/02 05:49:26;;;;;;;1.30;0.77;;;23.10;59.90;;;;;;5010634;28;20030;-62
2022/11/02 05:51:52;;;;;;;1.02;0.80;;;23.10;59.90;;;;;;5013953;28;20026;-62
2022/11/02 05:54:18;;;;;;;0.90;0.80;;;23.10;59.90;;;;;;5020648;28;20399;-62
2022/11/02 05:56:43;;;;;;;0.77;0.70;;;23.10;59.90;;;;;;5019887;28;20030;-62
2022/11/02 05:59:09;;;;;;;0.80;0.70;;;23.10;59.90;;;;;;5015072;28;20033;-62
2022/11/02 06:01:34;;;;;;;0.85;0.80;;;23.10;59.90;;;;;;5013394;28;20034;-61
2022/11/02 06:04:00;;;;;;;0.93;0.80;;;23.10;59.90;;;;;;5016875;28;20029;-63
2022/11/02 06:06:26;;;;;;;0.80;0.70;;;23.10;59.90;;;;;;5018874;28;20445;-61
2022/11/02 06:08:51;;;;;;;0.68;0.68;;;23.10;60.00;;;;;;5015934;28;20125;-62
2022/11/02 06:11:17;;;;;;;1.02;0.80;;;23.10;60.00;;;;;;5013466;28;20029;-62
2022/11/02 06:13:43;;;;;;;0.93;0.70;;;23.00;60.50;;;;;;5011396;28;20114;-61
2022/11/02 06:16:10;;;;;;;0.80;0.70;;;23.00;59.90;;;;;;5013117;28;20053;-62
2022/11/02 06:18:37;;;;;;;1.00;0.80;;;23.00;59.90;;;;;;5016717;28;20550;-62
2022/11/02 06:21:03;;;;;;;1.90;0.90;;;23.00;59.90;;;;;;5014350;28;20038;-62
2022/11/02 06:23:30;;;;;;;0.70;0.70;;;23.00;60.00;;;;;;5014266;28;20073;-61
2022/11/02 06:25:57;;;;;;;0.68;0.68;;;23.00;60.00;;;;;;5013877;28;20041;-62
2022/11/02 06:28:24;;;;;;;0.70;0.70;;;23.00;60.00;;;;;;5015831;28;20026;-62
2022/11/02 06:30:50;;;;;;;0.77;0.73;;;23.00;60.00;;;;;;5009882;28;20045;-61
2022/11/02 06:33:17;;;;;;;0.70;0.70;;;22.90;59.90;;;;;;5017462;28;20028;-61
2022/11/02 06:35:47;;;;;;;0.70;0.60;;;23.00;60.00;;;;;;5015185;28;20034;-61
2022/11/02 06:38:13;;;;;;;0.90;0.80;;;23.00;60.00;;;;;;5006724;28;20038;-62
2022/11/02 06:40:39;;;;;;;1.13;0.80;;;22.90;60.00;;;;;;5012443;28;20041;-61
2022/11/02 06:43:05;;;;;;;0.60;0.60;;;22.90;60.00;;;;;;5022964;28;20034;-62
2022/11/02 06:45:30;;;;;;;1.00;0.70;;;22.90;60.00;;;;;;5008455;28;20124;-63
2022/11/02 06:47:56;;;;;;;0.82;0.70;;;22.90;59.90;;;;;;5019755;28;20030;-61
2022/11/02 06:50:23;;;;;;;0.70;0.65;;;22.90;60.00;;;;;;5022100;28;20049;-62
2022/11/02 06:52:49;;;;;;;0.80;0.80;;;22.90;60.00;;;;;;5025157;28;20116;-61
2022/11/02 06:55:16;;;;;;;0.73;0.68;;;22.90;60.00;;;;;;5016789;28;20022;-61
2022/11/02 06:57:42;;;;;;;0.60;0.60;;;22.90;60.00;;;;;;5013075;28;20381;-61
2022/11/02 07:00:11;;;;;;;1.02;0.80;;;22.90;60.00;;;;;;5020794;28;20030;-62
2022/11/02 07:02:38;;;;;;;0.70;0.70;;;22.90;60.00;;;;;;5023537;28;20053;-62
2022/11/02 07:05:04;;;;;;;0.95;0.80;;;22.90;60.00;;;;;;5021610;28;20033;-62
2022/11/02 07:07:30;;;;;;;1.17;0.88;;;22.90;60.00;;;;;;5014866;28;20034;-61
2022/11/02 07:09:55;;;;;;;1.23;0.80;;;22.90;60.10;;;;;;5010561;28;20359;-61
2022/11/02 07:12:21;;;;;;;0.75;0.70;;;22.90;60.00;;;;;;5013624;28;20030;-61
2022/11/02 07:14:47;;;;;;;0.90;0.70;;;22.90;60.10;;;;;;5012691;28;20113;-61
2022/11/02 07:17:13;;;;;;;0.88;0.77;;;22.90;60.10;;;;;;5012092;28;20543;-61
2022/11/02 07:19:38;;;;;;;1.10;0.70;;;22.90;60.10;;;;;;5004287;28;20030;-62
2022/11/02 07:22:04;;;;;;;0.95;0.80;;;22.90;60.10;;;;;;5003466;28;20030;-61
2022/11/02 07:24:30;;;;;;;0.70;0.70;;;22.90;60.10;;;;;;5009814;28;20034;-62
2022/11/02 07:26:55;;;;;;;0.70;0.70;;;22.90;60.10;;;;;;5013185;28;20490;-62
2022/11/02 07:29:21;;;;;;;0.70;0.70;;;22.80;60.00;;;;;;5010011;28;20036;-61
2022/11/02 07:31:47;;;;;;;0.95;0.70;;;22.80;60.00;;;;;;5011748;28;20045;-61
2022/11/02 07:34:13;;;;;;;1.20;0.80;;;22.80;60.10;;;;;;5013382;28;20132;-63
2022/11/02 07:36:39;;;;;;;1.45;0.95;;;22.80;60.10;;;;;;5018024;28;20057;-63
2022/11/02 07:39:06;;;;;;;1.08;0.80;;;22.80;60.00;;;;;;5025608;28;20030;-61
2022/11/02 07:41:32;;;;;;;0.70;0.70;;;22.80;60.10;;;;;;5021374;28;20468;-62
2022/11/02 07:43:58;;;;;;;1.48;0.88;;;22.80;60.10;;;;;;5015446;28;20050;-63
2022/11/02 07:46:24;;;;;;;0.93;0.80;;;22.80;60.00;;;;;;5015258;28;20163;-62
2022/11/02 07:48:49;;;;;;;0.80;0.70;;;22.80;60.00;;;;;;5031345;28;20033;-61
2022/11/02 07:51:15;;;;;;;0.90;0.70;;;22.80;60.10;;;;;;5017677;28;20054;-63
2022/11/02 07:53:41;;;;;;;1.05;0.75;;;22.80;60.10;;;;;;5013996;28;20030;-62
2022/11/02 07:56:07;;;;;;;0.90;0.75;;;22.80;60.10;;;;;;5008397;28;20037;-61
2022/11/02 07:58:32;;;;;;;1.55;0.88;;;22.80;60.10;;;;;;5009893;28;20033;-62
2022/11/02 08:00:59;;;;;;;0.93;0.70;;;22.80;60.10;;;;;;5013361;28;20037;-62
2022/11/02 08:03:25;;;;;;;1.17;0.90;;;22.80;60.10;;;;;;5018286;28;20047;-62
2022/11/02 08:05:51;;;;;;;1.00;0.80;;;22.70;60.10;;;;;;5010101;28;20029;-61
2022/11/02 08:08:18;;;;;;;1.77;0.80;;;22.70;60.10;;;;;;5009390;28;20080;-60
2022/11/02 08:10:45;;;;;;;1.13;0.80;;;22.80;60.10;;;;;;5009031;28;20018;-62
2022/11/02 08:13:14;;;;;;;1.02;0.80;;;22.80;60.20;;;;;;5009802;28;20105;-61
2022/11/02 08:15:40;;;;;;;0.70;0.68;;;22.70;60.10;;;;;;5015153;28;20037;-61
2022/11/02 08:18:08;;;;;;;0.80;0.70;;;22.80;60.20;;;;;;5010466;28;20381;-62
2022/11/02 08:20:35;;;;;;;0.82;0.70;;;22.80;60.20;;;;;;5014416;28;20032;-61
2022/11/02 08:23:00;;;;;;;1.60;0.70;;;22.80;60.20;;;;;;5020819;28;20512;-63
2022/11/02 08:25:26;;;;;;;0.90;0.75;;;22.80;60.10;;;;;;5023625;28;20034;-61
2022/11/02 08:27:57;;;;;;;0.95;0.70;;;22.80;60.10;;;;;;5023755;28;20057;-62
2022/11/02 08:30:22;;;;;;;0.88;0.80;;;22.70;60.10;;;;;;5012250;28;20393;-61
2022/11/02 08:32:48;;;;;;;0.82;0.70;;;22.70;60.10;;;;;;5014217;28;20042;-60
2022/11/02 08:35:13;;;;;;;1.08;0.70;;;22.80;60.20;;;;;;5017068;28;20630;-62
2022/11/02 08:37:39;;;;;;;1.02;0.80;;;22.70;60.10;;;;;;5021144;28;20045;-62
2022/11/02 08:40:05;;;;;;;1.13;0.80;;;22.70;60.40;;;;;;5015500;28;20037;-60
2022/11/02 08:42:31;;;;;;;0.68;0.68;;;22.70;60.10;;;;;;5014468;28;20481;-62
2022/11/02 08:44:57;;;;;;;2.08;0.90;;;22.70;60.10;;;;;;5014123;28;20033;-61
2022/11/02 08:47:23;;;;;;;0.95;0.80;;;22.70;60.10;;;;;;5014526;28;20017;-62
2022/11/02 08:49:50;;;;;;;1.08;0.82;;;22.70;60.10;;;;;;5018115;28;20500;-61
2022/11/02 08:52:16;;;;;;;1.17;0.80;;;22.70;60.10;;;;;;5008471;28;20023;-60
2022/11/02 08:54:42;;;;;;;1.17;0.93;;;22.70;60.10;;;;;;5016902;28;20491;-61
2022/11/02 08:57:08;;;;;;;1.42;0.95;;;22.70;60.10;;;;;;5015497;28;20038;-62
2022/11/02 08:59:34;;;;;;;1.23;0.80;;;22.70;60.10;;;;;;5011202;28;20034;-62
2022/11/02 09:01:59;;;;;;;1.20;0.90;;;22.70;60.10;;;;;;5006418;28;20065;-61
2022/11/02 09:04:25;;;;;;;1.20;0.82;;;22.70;60.10;;;;;;4997734;28;20070;-61
2022/11/02 09:06:50;;;;;;;1.40;0.90;;;22.70;60.10;;;;;;5002270;28;20105;-62
2022/11/02 09:09:16;;;;;;;1.33;0.80;;;22.70;60.10;;;;;;5008875;28;20033;-62
2022/11/02 09:11:42;;;;;;;1.33;0.80;;;22.70;60.10;;;;;;5021945;28;20025;-61
2022/11/02 09:14:07;;;;;;;1.42;0.88;;;22.70;60.10;;;;;;5028237;28;20022;-61
2022/11/02 09:16:33;;;;;;;0.85;0.70;;;22.70;60.10;;;;;;5011041;28;20057;-62
2022/11/02 09:18:59;;;;;;;1.15;0.70;;;22.70;60.00;;;;;;5011587;28;20075;-61
2022/11/02 09:21:24;;;;;;;1.00;0.80;;;22.70;60.00;;;;;;5019860;28;20025;-60
2022/11/02 09:23:50;;;;;;;1.10;0.82;;;22.60;60.00;;;;;;5021025;28;20030;-61
2022/11/02 09:26:16;;;;;;;1.50;0.90;;;22.60;60.00;;;;;;5017347;28;20031;-62
2022/11/02 09:28:41;;;;;;;1.33;0.80;;;22.70;60.00;;;;;;5010541;28;20037;-62
2022/11/02 09:31:07;;;;;;;1.10;0.80;;;22.60;60.00;;;;;;5010032;28;20549;-61
2022/11/02 09:33:34;;;;;;;0.85;0.80;;;22.60;60.00;;;;;;5022061;28;20026;-61
2022/11/02 09:36:04;;;;;;;1.10;0.90;;;22.70;60.10;;;;;;5015690;28;20468;-61
2022/11/02 09:38:30;;;;;;;1.30;0.98;;;22.70;60.10;;;;;;5006263;28;20100;-61
2022/11/02 09:40:58;;;;;;;1.52;0.95;;;22.70;60.10;;;;;;5003615;28;20026;-62
2022/11/02 09:43:52;;;;;;;1.20;0.90;;;22.70;60.00;;;;;;5002883;28;20026;-61
2022/11/02 09:46:32;;;;;;;1.20;0.80;;;22.80;60.10;;;;;;5014231;28;20125;-61
2022/11/02 09:49:04;;;;;;;1.70;0.90;;;22.80;60.10;;;;;;5012804;28;20030;-61
2022/11/02 09:51:38;;;;;;;1.83;1.00;;;22.80;60.00;;;;;;5003446;28;20030;-61
2022/11/02 09:54:12;;;;;;;1.35;1.00;;;22.80;60.00;;;;;;5006806;28;20058;-61
2022/11/02 09:56:39;;;;;;;2.35;0.98;;;22.80;59.90;;;;;;5006577;28;20033;-61
2022/11/02 09:59:16;;;;;;;1.17;0.80;;;22.90;59.90;;;;;;5017323;28;20484;-62
2022/11/02 10:01:54;;;;;;;1.15;0.85;;;22.90;59.80;;;;;;5021056;28;20037;-60
2022/11/02 10:04:41;;;;;;;0.93;0.82;;;22.90;59.80;;;;;;5012291;28;20034;-60
2022/11/02 10:07:21;;;;;;;1.80;0.93;;;22.90;59.80;;;;;;5017152;28;20021;-61
2022/11/02 10:09:59;;;;;;;1.55;0.90;;;23.00;59.80;;;;;;5020672;28;20028;-61
2022/11/02 10:12:37;;;;;;;1.45;0.93;;;23.00;59.70;;;;;;5020274;28;20022;-60
2022/11/02 10:15:11;;;;;;;1.25;0.90;;;23.00;59.70;;;;;;5011329;28;20053;-60
2022/11/02 10:17:39;;;;;;;1.60;1.00;;;23.00;59.70;;;;;;5013163;28;20041;-62
2022/11/02 10:20:15;;;;;;;1.40;1.00;;;23.00;59.70;;;;;;5017473;28;20049;-61
2022/11/02 10:22:42;;;;;;;1.10;0.80;;;23.00;59.60;;;;;;5021445;28;20028;-61
2022/11/02 10:25:14;;;;;;;1.42;0.82;;;23.00;59.60;;;;;;5019136;28;20029;-60
2022/11/02 10:27:42;;;;;;;1.23;0.90;;;23.00;59.60;;;;;;5012167;28;20108;-61
2022/11/02 10:30:20;;;;;;;1.80;0.82;;;23.10;59.70;;;;;;5015138;28;20071;-60
2022/11/02 10:32:51;;;;;;;1.17;0.90;;;23.10;59.70;;;;;;5014561;28;20489;-61
2022/11/02 10:35:29;;;;;;;1.70;1.00;;;23.10;59.70;;;;;;5016036;28;20026;-61
2022/11/02 10:38:09;;;;;;;2.00;0.90;;;23.10;59.70;;;;;;5015287;28;20026;-61
2022/11/02 10:40:49;;;;;;;1.77;1.10;;;23.10;59.70;;;;;;5016475;28;20033;-60
2022/11/02 10:43:37;;;;;;;1.35;0.90;;;23.10;59.70;;;;;;5016152;28;20037;-61
2022/11/02 10:46:29;;;;;;;1.40;0.90;;;23.10;59.80;;;;;;5013612;28;20393;-61
2022/11/02 10:49:08;;;;;;;1.38;0.90;;;23.10;59.80;;;;;;5014379;28;20038;-60
2022/11/02 10:51:33;;;;;;;1.30;1.00;;;23.20;59.90;;;;;;5013548;28;20049;-60
2022/11/02 10:53:59;;;;;;;1.48;0.90;;;23.10;59.80;;;;;;5016954;28;20060;-60
2022/11/02 10:56:32;;;;;;;1.40;0.88;;;23.10;59.80;;;;;;5023546;28;20065;-60
2022/11/02 10:59:16;;;;;;;1.55;0.98;;;23.10;59.80;;;;;;5026191;28;20509;-61
2022/11/02 11:02:12;;;;;;;2.00;1.05;;;23.20;59.90;;;;;;5011239;28;20493;-62
2022/11/02 11:04:38;;;;;;;3.03;1.33;;;23.20;59.80;;;;;;5011474;28;20484;-60
2022/11/02 11:07:19;;;;;;;1.92;1.00;;;23.20;59.80;;;;;;5017674;28;20017;-60
2022/11/02 11:09:53;;;;;;;0.95;0.80;;;23.20;59.80;;;;;;5019631;28;20041;-61
2022/11/02 11:12:29;;;;;;;1.40;1.00;;;23.20;59.80;;;;;;5015886;28;20038;-60
2022/11/02 11:14:58;;;;;;;2.25;0.98;;;23.20;59.80;;;;;;5015645;28;20062;-60
2022/11/02 11:17:32;;;;;;;1.75;1.10;;;23.20;59.80;;;;;;5021761;28;20036;-63
2022/11/02 11:19:58;;;;;;;1.75;1.00;;;23.20;59.70;;;;;;5020108;28;20104;-61
2022/11/02 11:22:35;;;;;;;1.00;0.90;;;23.20;59.70;;;;;;5018260;28;20409;-61
2022/11/02 11:25:12;;;;;;;2.13;1.02;;;23.20;59.80;;;;;;5006982;28;20083;-62
2022/11/02 11:27:53;;;;;;;2.00;0.93;;;23.30;59.80;;;;;;5003827;28;20486;-60
2022/11/02 11:30:28;;;;;;;2.30;1.00;;;23.30;59.80;;;;;;5009037;28;20018;-60
2022/11/02 11:32:55;;;;;;;1.38;0.88;;;23.30;59.80;;;;;;5011570;28;20037;-61
2022/11/02 11:35:22;;;;;;;2.55;1.27;;;23.30;59.80;;;;;;5009502;28;20145;-62
2022/11/02 11:38:01;;;;;;;1.58;1.00;;;23.30;59.70;;;;;;5007591;28;20405;-62
2022/11/02 11:40:30;;;;;;;;;;;23.30;59.70;;;;;;5009927;28;20385;-62
2022/11/02 11:42:56;;;;;;;1.92;1.17;;;23.30;59.70;;;;;;5023335;28;19905;-61
2022/11/02 11:45:28;;;;;;;2.92;1.13;;;23.40;59.70;;;;;;5025934;28;20045;-61
2022/11/02 11:48:20;;;;;;;1.77;1.00;;;23.40;59.70;;;;;;5014295;28;20509;-61
2022/11/02 11:50:47;;;;;;;3.05;1.10;;;23.40;59.70;;;;;;5013035;28;20026;-60
2022/11/02 11:53:21;;;;;;;1.95;1.00;;;23.40;59.60;;;;;;5019344;28;20591;-61
2022/11/02 11:55:50;;;;;;;1.63;1.00;;;23.30;59.50;;;;;;5025631;28;20037;-61
2022/11/02 11:58:23;;;;;;;3.30;1.20;;;23.40;59.50;;;;;;5020268;28;20030;-60
2022/11/02 12:01:07;;;;;;;1.73;1.10;;;23.40;59.50;;;;;;5010009;28;20141;-60
2022/11/02 12:03:50;;;;;;;2.20;1.15;;;23.40;59.40;;;;;;5007760;28;20159;-62
2022/11/02 12:06:32;;;;;;;2.17;1.13;;;23.40;59.40;;;;;;5013514;28;20022;-62
2022/11/02 12:08:57;;;;;;;2.72;1.33;;;23.40;59.40;;;;;;5014678;28;20040;-60
2022/11/02 12:11:35;;;;;;;2.58;1.05;;;23.40;59.40;;;;;;5008732;28;20481;-61
2022/11/02 12:14:44;;;;;;;1.80;1.08;;;23.40;59.50;;;;;;5008248;28;20486;-61
2022/11/02 12:17:34;;;;;;;2.25;1.10;;;23.40;59.50;;;;;;4988733;28;20045;-61
2022/11/02 12:20:17;;;;;;;2.13;1.00;;;23.40;59.50;;;;;;5019927;28;20041;-61
2022/11/02 12:23:14;;;;;;;3.03;1.30;;;23.40;59.50;;;;;;5012405;28;20057;-61
2022/11/02 12:25:39;;;;;;;3.33;1.30;;;23.40;59.40;;;;;;5010648;28;20067;-61
2022/11/02 12:28:53;;;;;;;2.55;1.20;;;23.50;59.50;;;;;;5012651;28;20028;-61
2022/11/02 12:32:02;;;;;;;2.63;1.15;;;23.50;59.60;;;;;;5005508;28;20046;-61
2022/11/02 12:34:37;;;;;;;2.75;1.10;;;23.50;59.60;;;;;;5021233;28;20032;-63
2022/11/02 12:37:41;;;;;;;2.20;1.10;;;23.40;59.60;;;;;;5016198;28;20108;-62
2022/11/02 12:40:23;;;;;;;2.88;1.08;;;23.50;59.60;;;;;;5012253;28;20584;-63
2022/11/02 12:43:08;;;;;;;2.30;1.15;;;23.50;59.60;;;;;;5019412;28;20033;-61
2022/11/02 12:45:48;;;;;;;1.70;1.10;;;23.50;59.60;;;;;;5010224;28;20440;-63
2022/11/02 12:48:42;;;;;;;1.75;0.90;;;23.50;59.50;;;;;;5010954;28;20503;-62
2022/11/02 12:51:13;;;;;;;2.63;1.17;;;23.60;60.10;;;;;;5008927;28;20021;-62
2022/11/02 12:53:52;;;;;;;2.50;1.02;;;23.60;59.50;;;;;;5012348;28;20125;-62
2022/11/02 12:56:48;;;;;;;2.92;1.20;;;23.60;59.50;;;;;;5019942;28;20113;-59
2022/11/02 12:59:17;;;;;;;2.95;1.10;;;23.60;59.50;;;;;;5012315;28;20378;-62
2022/11/02 13:01:46;;;;;;;2.70;1.30;;;23.60;59.50;;;;;;5015018;28;20037;-62
2022/11/02 13:04:26;;;;;;;1.58;0.93;;;23.60;59.50;;;;;;5016824;28;20060;-62
2022/11/02 13:07:03;;;;;;;1.50;0.88;;;23.60;59.50;;;;;;5014389;28;20541;-61
2022/11/02 13:09:40;;;;;;;2.13;0.95;;;23.60;59.50;;;;;;5016840;28;20538;-61
2022/11/02 13:12:13;;;;;;;1.85;0.90;;;23.60;59.50;;;;;;5014070;28;20037;-61
2022/11/02 13:14:42;;;;;;;2.55;1.00;;;23.60;59.50;;;;;;5014730;28;20036;-62
2022/11/02 13:17:44;;;;;;;1.80;0.93;;;23.60;59.50;;;;;;5009703;28;20033;-63
2022/11/02 13:20:19;;;;;;;2.03;1.00;;;23.60;59.60;;;;;;5017422;28;20030;-61
2022/11/02 13:23:00;;;;;;;1.40;0.90;;;23.60;59.50;;;;;;5004928;28;20031;-61